sensor_id;sensor_type;location;lat;lon;timestamp;P1;durP1;ratioP1;P2;durP2;ratioP2
47219;SDS011;32961;51.936;4.788;2023-10-31T00:01:53;17.70;;;7.05;;
47219;SDS011;32961;51.936;4.788;2023-10-31T00:04:21;17.40;;;6.63;;
47219;SDS011;32961;51.936;4.788;2023-10-31T00:06:49;16.60;;;6.70;;
47219;SDS011;32961;51.936;4.788;2023-10-31T00:09:17;17.02;;;7.43;;
47219;SDS011;32961;51.936;4.788;2023-10-31T00:11:45;20.08;;;7.82;;
47219;SDS011;32961;51.936;4.788;2023-10-31T00:14:13;15.38;;;6.72;;
47219;SDS011;32961;51.936;4.788;2023-10-31T00:16:57;21.73;;;6.70;;
47219;SDS011;32961;51.936;4.788;2023-10-31T00:19:25;18.60;;;6.53;;
47219;SDS011;32961;51.936;4.788;2023-10-31T00:21:53;15.30;;;4.80;;
47219;SDS011;32961;51.936;4.788;2023-10-31T00:24:21;15.27;;;3.83;;
47219;SDS011;32961;51.936;4.788;2023-10-31T00:26:49;12.75;;;4.78;;
47219;SDS011;32961;51.936;4.788;2023-10-31T00:29:17;12.50;;;5.53;;
47219;SDS011;32961;51.936;4.788;2023-10-31T00:31:45;11.07;;;3.60;;
47219;SDS011;32961;51.936;4.788;2023-10-31T00:34:14;8.63;;;2.85;;
47219;SDS011;32961;51.936;4.788;2023-10-31T00:36:42;11.75;;;2.85;;
47219;SDS011;32961;51.936;4.788;2023-10-31T00:39:09;11.30;;;2.88;;
47219;SDS011;32961;51.936;4.788;2023-10-31T00:41:37;13.90;;;2.65;;
47219;SDS011;32961;51.936;4.788;2023-10-31T00:44:06;7.85;;;2.10;;
47219;SDS011;32961;51.936;4.788;2023-10-31T00:46:34;11.55;;;2.38;;
47219;SDS011;32961;51.936;4.788;2023-10-31T00:49:02;5.95;;;2.53;;
47219;SDS011;32961;51.936;4.788;2023-10-31T00:51:32;10.23;;;3.03;;
47219;SDS011;32961;51.936;4.788;2023-10-31T00:57:59;13.45;;;2.70;;
47219;SDS011;32961;51.936;4.788;2023-10-31T01:00:27;10.20;;;2.95;;
47219;SDS011;32961;51.936;4.788;2023-10-31T01:02:55;10.40;;;2.75;;
47219;SDS011;32961;51.936;4.788;2023-10-31T01:05:24;8.98;;;2.90;;
47219;SDS011;32961;51.936;4.788;2023-10-31T01:07:54;9.27;;;3.38;;
47219;SDS011;32961;51.936;4.788;2023-10-31T01:10:22;12.43;;;3.72;;
47219;SDS011;32961;51.936;4.788;2023-10-31T01:12:50;16.30;;;4.85;;
47219;SDS011;32961;51.936;4.788;2023-10-31T01:15:18;8.10;;;3.80;;
47219;SDS011;32961;51.936;4.788;2023-10-31T01:17:46;12.40;;;4.70;;
47219;SDS011;32961;51.936;4.788;2023-10-31T01:20:13;11.73;;;4.53;;
47219;SDS011;32961;51.936;4.788;2023-10-31T01:22:42;14.60;;;5.10;;
47219;SDS011;32961;51.936;4.788;2023-10-31T01:25:11;12.77;;;5.88;;
47219;SDS011;32961;51.936;4.788;2023-10-31T01:27:39;14.07;;;5.30;;
47219;SDS011;32961;51.936;4.788;2023-10-31T01:30:08;14.85;;;5.40;;
47219;SDS011;32961;51.936;4.788;2023-10-31T01:32:37;14.70;;;5.25;;
47219;SDS011;32961;51.936;4.788;2023-10-31T01:35:05;15.77;;;6.18;;
47219;SDS011;32961;51.936;4.788;2023-10-31T01:37:33;16.08;;;5.57;;
47219;SDS011;32961;51.936;4.788;2023-10-31T01:40:01;14.50;;;5.75;;
47219;SDS011;32961;51.936;4.788;2023-10-31T01:42:31;13.65;;;6.55;;
47219;SDS011;32961;51.936;4.788;2023-10-31T01:44:59;11.02;;;5.53;;
47219;SDS011;32961;51.936;4.788;2023-10-31T01:47:27;11.88;;;5.13;;
47219;SDS011;32961;51.936;4.788;2023-10-31T01:49:54;15.90;;;5.25;;
47219;SDS011;32961;51.936;4.788;2023-10-31T01:52:23;11.32;;;5.30;;
47219;SDS011;32961;51.936;4.788;2023-10-31T01:54:50;11.48;;;4.95;;
47219;SDS011;32961;51.936;4.788;2023-10-31T01:57:19;11.32;;;5.55;;
47219;SDS011;32961;51.936;4.788;2023-10-31T01:59:50;11.60;;;5.07;;
47219;SDS011;32961;51.936;4.788;2023-10-31T02:02:18;8.82;;;4.70;;
47219;SDS011;32961;51.936;4.788;2023-10-31T02:04:50;12.15;;;4.60;;
47219;SDS011;32961;51.936;4.788;2023-10-31T02:07:18;12.80;;;5.43;;
47219;SDS011;32961;51.936;4.788;2023-10-31T02:09:46;14.38;;;5.75;;
47219;SDS011;32961;51.936;4.788;2023-10-31T02:15:01;10.43;;;4.32;;
47219;SDS011;32961;51.936;4.788;2023-10-31T02:17:29;8.70;;;3.40;;
47219;SDS011;32961;51.936;4.788;2023-10-31T02:19:58;8.70;;;3.40;;
47219;SDS011;32961;51.936;4.788;2023-10-31T02:22:27;7.53;;;2.90;;
47219;SDS011;32961;51.936;4.788;2023-10-31T02:24:55;4.43;;;2.38;;
47219;SDS011;32961;51.936;4.788;2023-10-31T02:27:22;6.20;;;2.45;;
47219;SDS011;32961;51.936;4.788;2023-10-31T02:29:50;3.67;;;1.88;;
47219;SDS011;32961;51.936;4.788;2023-10-31T02:32:18;12.75;;;2.47;;
47219;SDS011;32961;51.936;4.788;2023-10-31T02:34:47;4.05;;;2.17;;
47219;SDS011;32961;51.936;4.788;2023-10-31T02:37:15;8.27;;;3.75;;
47219;SDS011;32961;51.936;4.788;2023-10-31T02:39:44;6.28;;;2.45;;
47219;SDS011;32961;51.936;4.788;2023-10-31T02:42:12;7.70;;;2.40;;
47219;SDS011;32961;51.936;4.788;2023-10-31T02:44:40;4.65;;;2.15;;
47219;SDS011;32961;51.936;4.788;2023-10-31T02:47:08;7.18;;;2.22;;
47219;SDS011;32961;51.936;4.788;2023-10-31T02:49:36;5.95;;;2.13;;
47219;SDS011;32961;51.936;4.788;2023-10-31T02:52:03;7.28;;;1.98;;
47219;SDS011;32961;51.936;4.788;2023-10-31T02:54:32;12.77;;;2.25;;
47219;SDS011;32961;51.936;4.788;2023-10-31T02:57:01;9.05;;;2.38;;
47219;SDS011;32961;51.936;4.788;2023-10-31T02:59:29;9.40;;;2.17;;
47219;SDS011;32961;51.936;4.788;2023-10-31T03:01:57;3.83;;;1.33;;
47219;SDS011;32961;51.936;4.788;2023-10-31T03:04:25;8.35;;;1.90;;
47219;SDS011;32961;51.936;4.788;2023-10-31T03:06:53;7.15;;;2.13;;
47219;SDS011;32961;51.936;4.788;2023-10-31T03:09:20;5.85;;;1.88;;
47219;SDS011;32961;51.936;4.788;2023-10-31T03:11:48;8.02;;;2.10;;
47219;SDS011;32961;51.936;4.788;2023-10-31T03:14:17;5.30;;;2.22;;
47219;SDS011;32961;51.936;4.788;2023-10-31T03:16:45;4.97;;;2.10;;
47219;SDS011;32961;51.936;4.788;2023-10-31T03:19:13;8.40;;;2.72;;
47219;SDS011;32961;51.936;4.788;2023-10-31T03:21:41;7.70;;;1.90;;
47219;SDS011;32961;51.936;4.788;2023-10-31T03:24:09;6.30;;;2.15;;
47219;SDS011;32961;51.936;4.788;2023-10-31T03:26:37;9.93;;;2.17;;
47219;SDS011;32961;51.936;4.788;2023-10-31T03:29:04;8.93;;;2.08;;
47219;SDS011;32961;51.936;4.788;2023-10-31T03:31:34;11.75;;;2.50;;
47219;SDS011;32961;51.936;4.788;2023-10-31T03:34:01;5.00;;;1.88;;
47219;SDS011;32961;51.936;4.788;2023-10-31T03:36:29;6.75;;;2.20;;
47219;SDS011;32961;51.936;4.788;2023-10-31T03:38:58;7.38;;;3.05;;
47219;SDS011;32961;51.936;4.788;2023-10-31T03:41:25;5.45;;;1.88;;
47219;SDS011;32961;51.936;4.788;2023-10-31T03:43:53;6.32;;;2.38;;
47219;SDS011;32961;51.936;4.788;2023-10-31T03:46:21;8.90;;;2.47;;
47219;SDS011;32961;51.936;4.788;2023-10-31T03:48:50;7.78;;;2.80;;
47219;SDS011;32961;51.936;4.788;2023-10-31T03:51:18;9.07;;;2.95;;
47219;SDS011;32961;51.936;4.788;2023-10-31T03:53:46;4.80;;;2.90;;
47219;SDS011;32961;51.936;4.788;2023-10-31T03:56:14;7.47;;;2.55;;
47219;SDS011;32961;51.936;4.788;2023-10-31T03:58:42;9.32;;;2.80;;
47219;SDS011;32961;51.936;4.788;2023-10-31T04:01:10;6.75;;;2.40;;
47219;SDS011;32961;51.936;4.788;2023-10-31T04:03:38;8.15;;;2.78;;
47219;SDS011;32961;51.936;4.788;2023-10-31T04:06:07;7.85;;;3.05;;
47219;SDS011;32961;51.936;4.788;2023-10-31T04:08:35;5.95;;;2.90;;
47219;SDS011;32961;51.936;4.788;2023-10-31T04:11:03;4.72;;;2.80;;
47219;SDS011;32961;51.936;4.788;2023-10-31T04:13:31;6.97;;;2.80;;
47219;SDS011;32961;51.936;4.788;2023-10-31T04:15:59;3.28;;;1.55;;
47219;SDS011;32961;51.936;4.788;2023-10-31T04:18:26;5.55;;;1.73;;
47219;SDS011;32961;51.936;4.788;2023-10-31T04:20:54;7.00;;;1.20;;
47219;SDS011;32961;51.936;4.788;2023-10-31T04:23:23;3.75;;;1.17;;
47219;SDS011;32961;51.936;4.788;2023-10-31T04:25:51;3.92;;;1.15;;
47219;SDS011;32961;51.936;4.788;2023-10-31T04:28:19;2.50;;;0.60;;
47219;SDS011;32961;51.936;4.788;2023-10-31T04:30:47;2.78;;;1.00;;
47219;SDS011;32961;51.936;4.788;2023-10-31T04:33:15;3.10;;;1.73;;
47219;SDS011;32961;51.936;4.788;2023-10-31T04:35:43;3.20;;;1.58;;
47219;SDS011;32961;51.936;4.788;2023-10-31T04:38:11;1.48;;;1.08;;
47219;SDS011;32961;51.936;4.788;2023-10-31T04:40:40;2.33;;;0.77;;
47219;SDS011;32961;51.936;4.788;2023-10-31T04:43:09;1.48;;;0.50;;
47219;SDS011;32961;51.936;4.788;2023-10-31T04:45:37;4.30;;;2.10;;
47219;SDS011;32961;51.936;4.788;2023-10-31T04:48:05;5.85;;;2.15;;
47219;SDS011;32961;51.936;4.788;2023-10-31T04:50:33;2.08;;;1.17;;
47219;SDS011;32961;51.936;4.788;2023-10-31T04:53:01;2.70;;;0.88;;
47219;SDS011;32961;51.936;4.788;2023-10-31T04:55:28;1.48;;;0.55;;
47219;SDS011;32961;51.936;4.788;2023-10-31T04:57:58;3.55;;;0.70;;
47219;SDS011;32961;51.936;4.788;2023-10-31T05:00:25;6.05;;;2.70;;
47219;SDS011;32961;51.936;4.788;2023-10-31T05:02:53;6.43;;;3.38;;
47219;SDS011;32961;51.936;4.788;2023-10-31T05:05:22;2.53;;;1.60;;
47219;SDS011;32961;51.936;4.788;2023-10-31T05:07:50;3.33;;;0.90;;
47219;SDS011;32961;51.936;4.788;2023-10-31T05:10:18;1.50;;;0.60;;
47219;SDS011;32961;51.936;4.788;2023-10-31T05:12:46;2.60;;;0.55;;
47219;SDS011;32961;51.936;4.788;2023-10-31T05:15:15;3.53;;;0.60;;
47219;SDS011;32961;51.936;4.788;2023-10-31T05:17:43;2.42;;;0.60;;
47219;SDS011;32961;51.936;4.788;2023-10-31T05:20:11;2.53;;;0.88;;
47219;SDS011;32961;51.936;4.788;2023-10-31T05:22:40;5.38;;;1.20;;
47219;SDS011;32961;51.936;4.788;2023-10-31T05:25:08;4.38;;;1.40;;
47219;SDS011;32961;51.936;4.788;2023-10-31T05:27:36;4.32;;;1.17;;
47219;SDS011;32961;51.936;4.788;2023-10-31T05:30:04;3.38;;;1.58;;
47219;SDS011;32961;51.936;4.788;2023-10-31T05:32:34;6.28;;;1.30;;
47219;SDS011;32961;51.936;4.788;2023-10-31T05:35:02;9.60;;;1.20;;
47219;SDS011;32961;51.936;4.788;2023-10-31T05:37:30;6.55;;;1.83;;
47219;SDS011;32961;51.936;4.788;2023-10-31T05:39:58;29.25;;;3.83;;
47219;SDS011;32961;51.936;4.788;2023-10-31T05:42:27;4.32;;;1.35;;
47219;SDS011;32961;51.936;4.788;2023-10-31T05:44:55;3.20;;;0.93;;
47219;SDS011;32961;51.936;4.788;2023-10-31T05:47:23;5.22;;;1.20;;
47219;SDS011;32961;51.936;4.788;2023-10-31T05:49:52;2.53;;;1.55;;
47219;SDS011;32961;51.936;4.788;2023-10-31T05:52:20;6.68;;;1.13;;
47219;SDS011;32961;51.936;4.788;2023-10-31T05:54:48;5.10;;;2.00;;
47219;SDS011;32961;51.936;4.788;2023-10-31T05:57:17;1.63;;;0.90;;
47219;SDS011;32961;51.936;4.788;2023-10-31T05:59:45;6.20;;;1.92;;
47219;SDS011;32961;51.936;4.788;2023-10-31T06:02:13;4.03;;;1.45;;
47219;SDS011;32961;51.936;4.788;2023-10-31T06:04:41;3.75;;;0.85;;
47219;SDS011;32961;51.936;4.788;2023-10-31T06:07:11;3.92;;;0.80;;
47219;SDS011;32961;51.936;4.788;2023-10-31T06:09:39;3.38;;;1.20;;
47219;SDS011;32961;51.936;4.788;2023-10-31T06:12:07;6.05;;;1.20;;
47219;SDS011;32961;51.936;4.788;2023-10-31T06:14:34;5.57;;;0.95;;
47219;SDS011;32961;51.936;4.788;2023-10-31T06:17:03;1.40;;;0.80;;
47219;SDS011;32961;51.936;4.788;2023-10-31T06:19:34;2.25;;;0.73;;
47219;SDS011;32961;51.936;4.788;2023-10-31T06:22:03;2.25;;;0.80;;
47219;SDS011;32961;51.936;4.788;2023-10-31T06:24:32;2.90;;;1.15;;
47219;SDS011;32961;51.936;4.788;2023-10-31T06:27:00;2.85;;;1.40;;
47219;SDS011;32961;51.936;4.788;2023-10-31T06:29:29;4.65;;;0.70;;
47219;SDS011;32961;51.936;4.788;2023-10-31T06:32:17;6.90;;;2.85;;
47219;SDS011;32961;51.936;4.788;2023-10-31T06:34:45;3.80;;;1.20;;
47219;SDS011;32961;51.936;4.788;2023-10-31T06:37:13;2.75;;;1.40;;
47219;SDS011;32961;51.936;4.788;2023-10-31T06:39:42;1.50;;;1.15;;
47219;SDS011;32961;51.936;4.788;2023-10-31T06:42:09;2.65;;;1.40;;
47219;SDS011;32961;51.936;4.788;2023-10-31T06:44:37;3.03;;;1.50;;
47219;SDS011;32961;51.936;4.788;2023-10-31T06:47:05;2.50;;;1.83;;
47219;SDS011;32961;51.936;4.788;2023-10-31T06:49:33;6.45;;;2.80;;
47219;SDS011;32961;51.936;4.788;2023-10-31T06:52:04;9.85;;;3.60;;
47219;SDS011;32961;51.936;4.788;2023-10-31T06:54:32;4.88;;;2.40;;
47219;SDS011;32961;51.936;4.788;2023-10-31T06:57:02;5.47;;;2.55;;
47219;SDS011;32961;51.936;4.788;2023-10-31T06:59:31;7.18;;;2.63;;
47219;SDS011;32961;51.936;4.788;2023-10-31T07:01:58;5.97;;;3.88;;
47219;SDS011;32961;51.936;4.788;2023-10-31T07:04:26;7.28;;;4.15;;
47219;SDS011;32961;51.936;4.788;2023-10-31T07:06:54;7.80;;;3.88;;
47219;SDS011;32961;51.936;4.788;2023-10-31T07:09:24;5.28;;;3.55;;
47219;SDS011;32961;51.936;4.788;2023-10-31T07:11:52;10.95;;;5.55;;
47219;SDS011;32961;51.936;4.788;2023-10-31T07:14:21;5.35;;;3.45;;
47219;SDS011;32961;51.936;4.788;2023-10-31T07:16:49;6.82;;;3.20;;
47219;SDS011;32961;51.936;4.788;2023-10-31T07:19:17;5.97;;;3.40;;
47219;SDS011;32961;51.936;4.788;2023-10-31T07:21:45;10.57;;;3.53;;
47219;SDS011;32961;51.936;4.788;2023-10-31T07:24:13;7.88;;;3.65;;
47219;SDS011;32961;51.936;4.788;2023-10-31T07:26:40;8.30;;;3.92;;
47219;SDS011;32961;51.936;4.788;2023-10-31T07:29:08;8.95;;;3.70;;
47219;SDS011;32961;51.936;4.788;2023-10-31T07:31:37;8.90;;;4.38;;
47219;SDS011;32961;51.936;4.788;2023-10-31T07:34:05;10.35;;;4.72;;
47219;SDS011;32961;51.936;4.788;2023-10-31T07:36:33;12.98;;;4.95;;
47219;SDS011;32961;51.936;4.788;2023-10-31T07:39:02;9.40;;;4.35;;
47219;SDS011;32961;51.936;4.788;2023-10-31T07:41:30;11.82;;;4.53;;
47219;SDS011;32961;51.936;4.788;2023-10-31T07:43:58;8.15;;;4.43;;
47219;SDS011;32961;51.936;4.788;2023-10-31T07:46:26;9.05;;;4.22;;
47219;SDS011;32961;51.936;4.788;2023-10-31T07:48:55;8.65;;;4.43;;
47219;SDS011;32961;51.936;4.788;2023-10-31T07:51:23;11.05;;;5.95;;
47219;SDS011;32961;51.936;4.788;2023-10-31T07:53:51;8.20;;;5.03;;
47219;SDS011;32961;51.936;4.788;2023-10-31T07:56:19;13.52;;;5.78;;
47219;SDS011;32961;51.936;4.788;2023-10-31T07:58:49;14.07;;;5.57;;
47219;SDS011;32961;51.936;4.788;2023-10-31T08:01:17;12.20;;;6.43;;
47219;SDS011;32961;51.936;4.788;2023-10-31T08:03:46;12.95;;;5.97;;
47219;SDS011;32961;51.936;4.788;2023-10-31T08:06:15;10.85;;;5.68;;
47219;SDS011;32961;51.936;4.788;2023-10-31T08:08:43;13.68;;;6.03;;
47219;SDS011;32961;51.936;4.788;2023-10-31T08:11:11;13.50;;;5.88;;
47219;SDS011;32961;51.936;4.788;2023-10-31T08:13:39;20.77;;;6.68;;
47219;SDS011;32961;51.936;4.788;2023-10-31T08:16:07;12.23;;;5.85;;
47219;SDS011;32961;51.936;4.788;2023-10-31T08:18:36;12.02;;;6.32;;
47219;SDS011;32961;51.936;4.788;2023-10-31T08:21:04;12.18;;;5.18;;
47219;SDS011;32961;51.936;4.788;2023-10-31T08:23:33;11.40;;;5.63;;
47219;SDS011;32961;51.936;4.788;2023-10-31T08:26:01;11.88;;;5.40;;
47219;SDS011;32961;51.936;4.788;2023-10-31T08:28:29;17.00;;;7.75;;
47219;SDS011;32961;51.936;4.788;2023-10-31T08:30:57;12.85;;;6.30;;
47219;SDS011;32961;51.936;4.788;2023-10-31T08:33:25;11.80;;;6.10;;
47219;SDS011;32961;51.936;4.788;2023-10-31T08:35:53;11.15;;;6.40;;
47219;SDS011;32961;51.936;4.788;2023-10-31T08:38:21;9.25;;;7.30;;
47219;SDS011;32961;51.936;4.788;2023-10-31T08:40:58;14.02;;;8.35;;
47219;SDS011;32961;51.936;4.788;2023-10-31T08:43:26;17.52;;;9.85;;
47219;SDS011;32961;51.936;4.788;2023-10-31T08:45:54;20.70;;;12.60;;
47219;SDS011;32961;51.936;4.788;2023-10-31T08:48:22;19.90;;;13.32;;
47219;SDS011;32961;51.936;4.788;2023-10-31T08:50:51;19.67;;;11.85;;
47219;SDS011;32961;51.936;4.788;2023-10-31T08:53:19;22.80;;;12.18;;
47219;SDS011;32961;51.936;4.788;2023-10-31T08:55:49;15.10;;;10.20;;
47219;SDS011;32961;51.936;4.788;2023-10-31T08:58:19;16.98;;;10.70;;
47219;SDS011;32961;51.936;4.788;2023-10-31T09:00:46;14.32;;;9.57;;
47219;SDS011;32961;51.936;4.788;2023-10-31T09:03:14;16.60;;;9.75;;
47219;SDS011;32961;51.936;4.788;2023-10-31T09:05:42;17.73;;;8.15;;
47219;SDS011;32961;51.936;4.788;2023-10-31T09:08:10;17.92;;;8.07;;
47219;SDS011;32961;51.936;4.788;2023-10-31T09:10:38;24.92;;;11.27;;
47219;SDS011;32961;51.936;4.788;2023-10-31T09:13:07;17.90;;;7.35;;
47219;SDS011;32961;51.936;4.788;2023-10-31T09:15:37;21.20;;;6.28;;
47219;SDS011;32961;51.936;4.788;2023-10-31T09:18:05;13.77;;;5.75;;
47219;SDS011;32961;51.936;4.788;2023-10-31T09:20:37;16.77;;;6.03;;
47219;SDS011;32961;51.936;4.788;2023-10-31T09:23:05;16.90;;;5.70;;
47219;SDS011;32961;51.936;4.788;2023-10-31T09:25:33;14.13;;;4.88;;
47219;SDS011;32961;51.936;4.788;2023-10-31T09:28:00;14.15;;;4.50;;
47219;SDS011;32961;51.936;4.788;2023-10-31T09:30:28;11.25;;;3.72;;
47219;SDS011;32961;51.936;4.788;2023-10-31T09:32:57;11.00;;;3.97;;
47219;SDS011;32961;51.936;4.788;2023-10-31T09:35:25;10.55;;;3.55;;
47219;SDS011;32961;51.936;4.788;2023-10-31T09:37:53;11.15;;;3.50;;
47219;SDS011;32961;51.936;4.788;2023-10-31T09:40:21;7.43;;;3.05;;
47219;SDS011;32961;51.936;4.788;2023-10-31T09:42:49;10.05;;;4.13;;
47219;SDS011;32961;51.936;4.788;2023-10-31T09:45:17;21.15;;;4.13;;
47219;SDS011;32961;51.936;4.788;2023-10-31T09:47:45;11.65;;;3.47;;
47219;SDS011;32961;51.936;4.788;2023-10-31T09:50:15;16.08;;;3.20;;
47219;SDS011;32961;51.936;4.788;2023-10-31T09:52:45;5.57;;;2.38;;
47219;SDS011;32961;51.936;4.788;2023-10-31T09:55:13;16.75;;;5.65;;
47219;SDS011;32961;51.936;4.788;2023-10-31T09:57:43;15.27;;;5.32;;
47219;SDS011;32961;51.936;4.788;2023-10-31T10:00:11;13.90;;;4.15;;
47219;SDS011;32961;51.936;4.788;2023-10-31T10:02:40;12.95;;;3.67;;
47219;SDS011;32961;51.936;4.788;2023-10-31T10:05:08;11.32;;;3.85;;
47219;SDS011;32961;51.936;4.788;2023-10-31T10:07:38;12.52;;;3.88;;
47219;SDS011;32961;51.936;4.788;2023-10-31T10:10:10;15.45;;;3.67;;
47219;SDS011;32961;51.936;4.788;2023-10-31T10:12:41;7.25;;;3.47;;
47219;SDS011;32961;51.936;4.788;2023-10-31T10:15:09;11.73;;;3.88;;
47219;SDS011;32961;51.936;4.788;2023-10-31T10:17:39;9.50;;;4.20;;
47219;SDS011;32961;51.936;4.788;2023-10-31T10:20:16;10.77;;;4.30;;
47219;SDS011;32961;51.936;4.788;2023-10-31T10:22:46;10.13;;;4.03;;
47219;SDS011;32961;51.936;4.788;2023-10-31T10:25:15;8.02;;;4.60;;
47219;SDS011;32961;51.936;4.788;2023-10-31T10:27:45;7.22;;;5.03;;
47219;SDS011;32961;51.936;4.788;2023-10-31T10:30:14;13.75;;;5.68;;
47219;SDS011;32961;51.936;4.788;2023-10-31T10:32:42;12.05;;;5.70;;
47219;SDS011;32961;51.936;4.788;2023-10-31T10:35:11;11.65;;;4.47;;
47219;SDS011;32961;51.936;4.788;2023-10-31T10:37:39;10.10;;;5.18;;
47219;SDS011;32961;51.936;4.788;2023-10-31T10:40:08;16.40;;;7.00;;
47219;SDS011;32961;51.936;4.788;2023-10-31T10:42:40;16.08;;;9.40;;
47219;SDS011;32961;51.936;4.788;2023-10-31T10:45:13;23.17;;;13.90;;
47219;SDS011;32961;51.936;4.788;2023-10-31T10:47:45;19.38;;;13.23;;
47219;SDS011;32961;51.936;4.788;2023-10-31T10:50:17;19.55;;;14.75;;
47219;SDS011;32961;51.936;4.788;2023-10-31T10:52:49;21.80;;;15.27;;
47219;SDS011;32961;51.936;4.788;2023-10-31T10:55:21;26.23;;;15.48;;
47219;SDS011;32961;51.936;4.788;2023-10-31T10:57:52;24.13;;;17.25;;
47219;SDS011;32961;51.936;4.788;2023-10-31T11:00:27;24.50;;;17.30;;
47219;SDS011;32961;51.936;4.788;2023-10-31T11:02:56;32.72;;;17.55;;
47219;SDS011;32961;51.936;4.788;2023-10-31T11:05:24;23.33;;;16.65;;
47219;SDS011;32961;51.936;4.788;2023-10-31T11:07:52;25.20;;;16.13;;
47219;SDS011;32961;51.936;4.788;2023-10-31T11:10:24;28.98;;;14.93;;
47219;SDS011;32961;51.936;4.788;2023-10-31T11:12:53;24.13;;;15.13;;
47219;SDS011;32961;51.936;4.788;2023-10-31T11:15:23;23.40;;;15.55;;
47219;SDS011;32961;51.936;4.788;2023-10-31T11:17:52;26.05;;;16.02;;
47219;SDS011;32961;51.936;4.788;2023-10-31T11:20:22;27.80;;;15.10;;
47219;SDS011;32961;51.936;4.788;2023-10-31T11:22:54;26.05;;;15.48;;
47219;SDS011;32961;51.936;4.788;2023-10-31T11:25:25;21.63;;;15.70;;
47219;SDS011;32961;51.936;4.788;2023-10-31T11:28:10;21.10;;;15.10;;
47219;SDS011;32961;51.936;4.788;2023-10-31T11:30:39;22.90;;;14.73;;
47219;SDS011;32961;51.936;4.788;2023-10-31T11:33:11;18.75;;;15.05;;
47219;SDS011;32961;51.936;4.788;2023-10-31T11:35:39;21.40;;;14.20;;
47219;SDS011;32961;51.936;4.788;2023-10-31T11:38:09;25.45;;;15.07;;
47219;SDS011;32961;51.936;4.788;2023-10-31T11:40:46;29.45;;;17.40;;
47219;SDS011;32961;51.936;4.788;2023-10-31T11:43:35;27.08;;;15.73;;
47219;SDS011;32961;51.936;4.788;2023-10-31T11:46:18;21.88;;;14.07;;
47219;SDS011;32961;51.936;4.788;2023-10-31T11:48:47;17.77;;;13.07;;
47219;SDS011;32961;51.936;4.788;2023-10-31T11:51:17;22.00;;;14.95;;
47219;SDS011;32961;51.936;4.788;2023-10-31T11:53:46;20.52;;;12.75;;
47219;SDS011;32961;51.936;4.788;2023-10-31T11:56:17;20.27;;;11.30;;
47219;SDS011;32961;51.936;4.788;2023-10-31T11:58:54;15.10;;;10.95;;
47219;SDS011;32961;51.936;4.788;2023-10-31T12:01:23;20.02;;;12.15;;
47219;SDS011;32961;51.936;4.788;2023-10-31T12:03:51;15.68;;;10.23;;
47219;SDS011;32961;51.936;4.788;2023-10-31T12:06:19;19.63;;;10.18;;
47219;SDS011;32961;51.936;4.788;2023-10-31T12:08:48;14.75;;;10.88;;
47219;SDS011;32961;51.936;4.788;2023-10-31T12:11:18;16.60;;;11.32;;
47219;SDS011;32961;51.936;4.788;2023-10-31T12:13:51;12.77;;;10.90;;
47219;SDS011;32961;51.936;4.788;2023-10-31T12:16:22;20.17;;;10.90;;
47219;SDS011;32961;51.936;4.788;2023-10-31T12:18:55;15.88;;;11.18;;
47219;SDS011;32961;51.936;4.788;2023-10-31T12:21:34;20.70;;;13.32;;
47219;SDS011;32961;51.936;4.788;2023-10-31T12:24:06;15.38;;;12.00;;
47219;SDS011;32961;51.936;4.788;2023-10-31T12:26:37;15.00;;;12.70;;
47219;SDS011;32961;51.936;4.788;2023-10-31T12:29:06;19.23;;;13.07;;
47219;SDS011;32961;51.936;4.788;2023-10-31T12:31:44;15.10;;;11.93;;
47219;SDS011;32961;51.936;4.788;2023-10-31T12:34:14;20.15;;;16.08;;
47219;SDS011;32961;51.936;4.788;2023-10-31T12:36:42;21.55;;;15.05;;
47219;SDS011;32961;51.936;4.788;2023-10-31T12:39:11;20.05;;;14.05;;
47219;SDS011;32961;51.936;4.788;2023-10-31T12:41:41;20.05;;;13.40;;
47219;SDS011;32961;51.936;4.788;2023-10-31T12:44:09;16.85;;;13.80;;
47219;SDS011;32961;51.936;4.788;2023-10-31T12:46:38;21.00;;;15.20;;
47219;SDS011;32961;51.936;4.788;2023-10-31T12:49:10;22.63;;;15.32;;
47219;SDS011;32961;51.936;4.788;2023-10-31T12:51:54;24.45;;;18.20;;
47219;SDS011;32961;51.936;4.788;2023-10-31T12:54:30;28.13;;;19.98;;
47219;SDS011;32961;51.936;4.788;2023-10-31T12:57:02;27.15;;;21.17;;
47219;SDS011;32961;51.936;4.788;2023-10-31T12:59:31;31.88;;;22.38;;
47219;SDS011;32961;51.936;4.788;2023-10-31T13:02:00;29.23;;;23.08;;
47219;SDS011;32961;51.936;4.788;2023-10-31T13:04:29;27.95;;;22.35;;
47219;SDS011;32961;51.936;4.788;2023-10-31T13:06:58;27.63;;;22.15;;
47219;SDS011;32961;51.936;4.788;2023-10-31T13:09:30;29.00;;;21.45;;
47219;SDS011;32961;51.936;4.788;2023-10-31T13:12:03;26.55;;;21.45;;
47219;SDS011;32961;51.936;4.788;2023-10-31T13:14:33;25.05;;;19.35;;
47219;SDS011;32961;51.936;4.788;2023-10-31T13:17:03;23.15;;;19.63;;
47219;SDS011;32961;51.936;4.788;2023-10-31T13:19:31;25.60;;;19.73;;
47219;SDS011;32961;51.936;4.788;2023-10-31T13:21:59;25.67;;;19.75;;
47219;SDS011;32961;51.936;4.788;2023-10-31T13:24:27;24.42;;;17.77;;
47219;SDS011;32961;51.936;4.788;2023-10-31T13:26:55;23.67;;;16.55;;
47219;SDS011;32961;51.936;4.788;2023-10-31T13:29:24;21.95;;;15.90;;
47219;SDS011;32961;51.936;4.788;2023-10-31T13:31:53;20.42;;;14.77;;
47219;SDS011;32961;51.936;4.788;2023-10-31T13:34:21;17.92;;;14.20;;
47219;SDS011;32961;51.936;4.788;2023-10-31T13:36:50;21.48;;;14.43;;
47219;SDS011;32961;51.936;4.788;2023-10-31T13:39:20;19.05;;;13.25;;
47219;SDS011;32961;51.936;4.788;2023-10-31T13:41:48;19.88;;;13.60;;
47219;SDS011;32961;51.936;4.788;2023-10-31T13:44:17;18.60;;;13.60;;
47219;SDS011;32961;51.936;4.788;2023-10-31T13:46:46;20.10;;;14.75;;
47219;SDS011;32961;51.936;4.788;2023-10-31T13:49:14;18.10;;;13.93;;
47219;SDS011;32961;51.936;4.788;2023-10-31T13:51:42;19.77;;;13.98;;
47219;SDS011;32961;51.936;4.788;2023-10-31T13:54:10;25.05;;;14.50;;
47219;SDS011;32961;51.936;4.788;2023-10-31T13:56:38;21.52;;;12.77;;
47219;SDS011;32961;51.936;4.788;2023-10-31T13:59:06;22.55;;;13.95;;
47219;SDS011;32961;51.936;4.788;2023-10-31T14:01:33;17.40;;;13.85;;
47219;SDS011;32961;51.936;4.788;2023-10-31T14:04:03;20.58;;;14.65;;
47219;SDS011;32961;51.936;4.788;2023-10-31T14:06:31;25.65;;;16.55;;
47219;SDS011;32961;51.936;4.788;2023-10-31T14:08:59;18.15;;;13.35;;
47219;SDS011;32961;51.936;4.788;2023-10-31T14:11:31;15.38;;;11.32;;
47219;SDS011;32961;51.936;4.788;2023-10-31T14:13:59;12.88;;;9.95;;
47219;SDS011;32961;51.936;4.788;2023-10-31T14:16:32;13.00;;;9.35;;
47219;SDS011;32961;51.936;4.788;2023-10-31T14:19:00;13.35;;;8.13;;
47219;SDS011;32961;51.936;4.788;2023-10-31T14:21:30;12.32;;;7.95;;
47219;SDS011;32961;51.936;4.788;2023-10-31T14:23:58;15.00;;;7.60;;
47219;SDS011;32961;51.936;4.788;2023-10-31T14:26:36;10.32;;;5.63;;
47219;SDS011;32961;51.936;4.788;2023-10-31T14:29:05;17.65;;;10.13;;
47219;SDS011;32961;51.936;4.788;2023-10-31T14:31:37;9.80;;;6.35;;
47219;SDS011;32961;51.936;4.788;2023-10-31T14:34:07;11.90;;;6.88;;
47219;SDS011;32961;51.936;4.788;2023-10-31T14:36:35;8.20;;;5.90;;
47219;SDS011;32961;51.936;4.788;2023-10-31T14:39:03;12.45;;;6.78;;
47219;SDS011;32961;51.936;4.788;2023-10-31T14:41:32;10.85;;;6.50;;
47219;SDS011;32961;51.936;4.788;2023-10-31T14:44:01;9.95;;;6.28;;
47219;SDS011;32961;51.936;4.788;2023-10-31T14:46:29;10.27;;;5.70;;
47219;SDS011;32961;51.936;4.788;2023-10-31T14:48:58;9.98;;;5.82;;
47219;SDS011;32961;51.936;4.788;2023-10-31T14:51:27;9.63;;;5.75;;
47219;SDS011;32961;51.936;4.788;2023-10-31T14:53:55;12.57;;;6.22;;